< < Back
Terminal Aerodrome Forecast


Current Version              Previous Versions:   1  2  3  4  5  6  7  8  9  

Terminal Aerodrome Forecast

334
FTUS44 KMRX 231228 AAA
TAFCHA
TAF AMD
KCHA 231228Z 2312/2412 00000KT 5SM BR BKN005
     FM231300 00000KT P6SM SCT008 BKN080
     FM231600 23005KT P6SM VCTS SCT035CB BKN150
     FM240200 VRB03KT P6SM FEW040 SCT150 BKN250
     FM240600 00000KT P6SM OVC250=

Latest METAR

255
SAUS80 KWBC 231400 CCA
MTRCHA
METAR KCHA 231353Z 00000KT 10SM SCT020 SCT075 26/21 A3012 RMK AO2 SLP191
T02610211


USA.gov is the U.S. government's official web portal to all federal, state and local government web resources and services.